sensor_id;sensor_type;location;lat;lon;timestamp;P1;durP1;ratioP1;P2;durP2;ratioP2
36379;SDS011;22411;53.016;18.632;2022-07-30T00:00:03;1.45;;;0.30;;
36379;SDS011;22411;53.016;18.632;2022-07-30T00:02:50;5.35;;;0.52;;
36379;SDS011;22411;53.016;18.632;2022-07-30T00:05:16;0.55;;;0.20;;
36379;SDS011;22411;53.016;18.632;2022-07-30T00:07:42;4.82;;;0.32;;
36379;SDS011;22411;53.016;18.632;2022-07-30T00:10:07;2.40;;;0.30;;
36379;SDS011;22411;53.016;18.632;2022-07-30T00:12:34;1.08;;;0.20;;
36379;SDS011;22411;53.016;18.632;2022-07-30T00:14:59;4.97;;;1.23;;
36379;SDS011;22411;53.016;18.632;2022-07-30T00:17:25;2.58;;;0.50;;
36379;SDS011;22411;53.016;18.632;2022-07-30T00:19:51;2.90;;;0.30;;
36379;SDS011;22411;53.016;18.632;2022-07-30T00:22:17;1.88;;;0.50;;
36379;SDS011;22411;53.016;18.632;2022-07-30T00:24:42;1.77;;;0.30;;
36379;SDS011;22411;53.016;18.632;2022-07-30T00:27:08;1.30;;;0.43;;
36379;SDS011;22411;53.016;18.632;2022-07-30T00:29:34;1.52;;;0.40;;
36379;SDS011;22411;53.016;18.632;2022-07-30T00:32:00;2.90;;;0.63;;
36379;SDS011;22411;53.016;18.632;2022-07-30T00:34:26;3.20;;;0.52;;
36379;SDS011;22411;53.016;18.632;2022-07-30T00:36:52;1.23;;;0.43;;
36379;SDS011;22411;53.016;18.632;2022-07-30T00:39:18;4.25;;;0.45;;
36379;SDS011;22411;53.016;18.632;2022-07-30T00:41:54;1.30;;;0.30;;
36379;SDS011;22411;53.016;18.632;2022-07-30T00:44:25;2.55;;;0.40;;
36379;SDS011;22411;53.016;18.632;2022-07-30T00:46:52;2.13;;;0.30;;
36379;SDS011;22411;53.016;18.632;2022-07-30T00:49:19;2.92;;;0.30;;
36379;SDS011;22411;53.016;18.632;2022-07-30T00:51:46;0.90;;;0.20;;
36379;SDS011;22411;53.016;18.632;2022-07-30T00:54:12;1.27;;;0.22;;
36379;SDS011;22411;53.016;18.632;2022-07-30T00:56:39;2.78;;;0.30;;
36379;SDS011;22411;53.016;18.632;2022-07-30T00:59:06;6.78;;;0.30;;
36379;SDS011;22411;53.016;18.632;2022-07-30T01:01:33;1.85;;;0.77;;
36379;SDS011;22411;53.016;18.632;2022-07-30T01:04:00;2.38;;;0.40;;
36379;SDS011;22411;53.016;18.632;2022-07-30T01:06:26;2.80;;;0.30;;
36379;SDS011;22411;53.016;18.632;2022-07-30T01:08:52;5.40;;;0.20;;
36379;SDS011;22411;53.016;18.632;2022-07-30T01:11:18;2.47;;;0.40;;
36379;SDS011;22411;53.016;18.632;2022-07-30T01:13:44;1.25;;;0.30;;
36379;SDS011;22411;53.016;18.632;2022-07-30T01:16:11;2.53;;;0.60;;
36379;SDS011;22411;53.016;18.632;2022-07-30T01:18:38;3.22;;;0.43;;
36379;SDS011;22411;53.016;18.632;2022-07-30T01:21:27;3.40;;;0.50;;
36379;SDS011;22411;53.016;18.632;2022-07-30T01:26:43;2.42;;;0.20;;
36379;SDS011;22411;53.016;18.632;2022-07-30T01:29:09;1.15;;;0.20;;
36379;SDS011;22411;53.016;18.632;2022-07-30T01:31:39;3.60;;;0.45;;
36379;SDS011;22411;53.016;18.632;2022-07-30T01:34:08;3.50;;;0.40;;
36379;SDS011;22411;53.016;18.632;2022-07-30T01:36:37;1.52;;;0.30;;
36379;SDS011;22411;53.016;18.632;2022-07-30T01:39:04;2.17;;;0.30;;
36379;SDS011;22411;53.016;18.632;2022-07-30T01:41:31;1.10;;;0.30;;
36379;SDS011;22411;53.016;18.632;2022-07-30T01:43:57;1.70;;;0.20;;
36379;SDS011;22411;53.016;18.632;2022-07-30T01:46:24;1.38;;;0.57;;
36379;SDS011;22411;53.016;18.632;2022-07-30T01:48:52;1.42;;;0.40;;
36379;SDS011;22411;53.016;18.632;2022-07-30T01:51:22;2.35;;;0.20;;
36379;SDS011;22411;53.016;18.632;2022-07-30T01:53:49;1.90;;;0.40;;
36379;SDS011;22411;53.016;18.632;2022-07-30T01:56:18;0.80;;;0.20;;
36379;SDS011;22411;53.016;18.632;2022-07-30T01:58:45;2.80;;;0.30;;
36379;SDS011;22411;53.016;18.632;2022-07-30T02:01:15;1.95;;;0.28;;
36379;SDS011;22411;53.016;18.632;2022-07-30T02:03:41;2.70;;;0.30;;
36379;SDS011;22411;53.016;18.632;2022-07-30T02:06:08;0.77;;;0.20;;
36379;SDS011;22411;53.016;18.632;2022-07-30T02:08:45;3.42;;;0.20;;
36379;SDS011;22411;53.016;18.632;2022-07-30T02:11:17;3.55;;;0.60;;
36379;SDS011;22411;53.016;18.632;2022-07-30T02:14:07;1.48;;;0.40;;
36379;SDS011;22411;53.016;18.632;2022-07-30T02:16:47;1.27;;;0.30;;
36379;SDS011;22411;53.016;18.632;2022-07-30T02:19:18;2.00;;;0.20;;
36379;SDS011;22411;53.016;18.632;2022-07-30T02:21:47;1.60;;;0.30;;
36379;SDS011;22411;53.016;18.632;2022-07-30T02:24:21;2.15;;;0.35;;
36379;SDS011;22411;53.016;18.632;2022-07-30T02:26:52;1.48;;;0.40;;
36379;SDS011;22411;53.016;18.632;2022-07-30T02:29:22;4.28;;;0.30;;
36379;SDS011;22411;53.016;18.632;2022-07-30T02:31:48;1.02;;;0.30;;
36379;SDS011;22411;53.016;18.632;2022-07-30T02:34:16;2.03;;;0.40;;
36379;SDS011;22411;53.016;18.632;2022-07-30T02:36:45;1.83;;;0.30;;
36379;SDS011;22411;53.016;18.632;2022-07-30T02:39:12;2.30;;;0.50;;
36379;SDS011;22411;53.016;18.632;2022-07-30T02:41:40;2.33;;;0.52;;
36379;SDS011;22411;53.016;18.632;2022-07-30T02:44:09;2.38;;;0.90;;
36379;SDS011;22411;53.016;18.632;2022-07-30T02:46:36;3.97;;;0.70;;
36379;SDS011;22411;53.016;18.632;2022-07-30T02:49:04;3.15;;;1.73;;
36379;SDS011;22411;53.016;18.632;2022-07-30T02:51:32;2.80;;;1.65;;
36379;SDS011;22411;53.016;18.632;2022-07-30T02:53:59;6.97;;;1.80;;
36379;SDS011;22411;53.016;18.632;2022-07-30T02:56:28;5.93;;;2.55;;
36379;SDS011;22411;53.016;18.632;2022-07-30T02:58:55;3.15;;;1.65;;
36379;SDS011;22411;53.016;18.632;2022-07-30T03:01:23;3.85;;;1.42;;
36379;SDS011;22411;53.016;18.632;2022-07-30T03:03:50;6.13;;;2.38;;
36379;SDS011;22411;53.016;18.632;2022-07-30T03:06:17;9.02;;;5.30;;
36379;SDS011;22411;53.016;18.632;2022-07-30T03:08:44;14.25;;;6.95;;
36379;SDS011;22411;53.016;18.632;2022-07-30T03:11:11;14.75;;;8.65;;
36379;SDS011;22411;53.016;18.632;2022-07-30T03:13:41;19.83;;;12.27;;
36379;SDS011;22411;53.016;18.632;2022-07-30T03:16:09;18.83;;;11.65;;
36379;SDS011;22411;53.016;18.632;2022-07-30T03:18:36;20.17;;;12.82;;
36379;SDS011;22411;53.016;18.632;2022-07-30T03:21:03;18.00;;;11.27;;
36379;SDS011;22411;53.016;18.632;2022-07-30T03:23:32;15.30;;;10.02;;
36379;SDS011;22411;53.016;18.632;2022-07-30T03:26:02;14.07;;;9.25;;
36379;SDS011;22411;53.016;18.632;2022-07-30T03:28:31;14.57;;;9.05;;
36379;SDS011;22411;53.016;18.632;2022-07-30T03:31:00;13.82;;;8.50;;
36379;SDS011;22411;53.016;18.632;2022-07-30T03:33:27;11.52;;;7.22;;
36379;SDS011;22411;53.016;18.632;2022-07-30T03:35:53;7.95;;;5.43;;
36379;SDS011;22411;53.016;18.632;2022-07-30T03:38:20;8.18;;;5.22;;
36379;SDS011;22411;53.016;18.632;2022-07-30T03:40:47;8.38;;;4.18;;
36379;SDS011;22411;53.016;18.632;2022-07-30T03:43:15;5.07;;;3.00;;
36379;SDS011;22411;53.016;18.632;2022-07-30T03:45:43;6.00;;;3.90;;
36379;SDS011;22411;53.016;18.632;2022-07-30T03:48:11;5.85;;;3.70;;
36379;SDS011;22411;53.016;18.632;2022-07-30T03:50:39;6.82;;;3.42;;
36379;SDS011;22411;53.016;18.632;2022-07-30T03:53:07;6.10;;;3.38;;
36379;SDS011;22411;53.016;18.632;2022-07-30T03:55:36;7.85;;;2.25;;
36379;SDS011;22411;53.016;18.632;2022-07-30T03:58:03;5.47;;;2.10;;
36379;SDS011;22411;53.016;18.632;2022-07-30T04:00:32;2.08;;;1.15;;
36379;SDS011;22411;53.016;18.632;2022-07-30T04:02:58;4.63;;;1.27;;
36379;SDS011;22411;53.016;18.632;2022-07-30T04:05:24;2.33;;;1.08;;
36379;SDS011;22411;53.016;18.632;2022-07-30T04:07:49;3.28;;;1.20;;
36379;SDS011;22411;53.016;18.632;2022-07-30T04:10:15;5.47;;;0.93;;
36379;SDS011;22411;53.016;18.632;2022-07-30T04:12:42;4.30;;;0.98;;
36379;SDS011;22411;53.016;18.632;2022-07-30T04:15:08;6.82;;;1.10;;
36379;SDS011;22411;53.016;18.632;2022-07-30T04:20:07;2.10;;;0.50;;
36379;SDS011;22411;53.016;18.632;2022-07-30T04:22:38;1.85;;;0.32;;
36379;SDS011;22411;53.016;18.632;2022-07-30T04:25:05;1.95;;;0.60;;
36379;SDS011;22411;53.016;18.632;2022-07-30T04:27:33;1.67;;;0.60;;
36379;SDS011;22411;53.016;18.632;2022-07-30T04:30:02;2.85;;;0.40;;
36379;SDS011;22411;53.016;18.632;2022-07-30T04:32:29;2.90;;;0.60;;
36379;SDS011;22411;53.016;18.632;2022-07-30T04:34:56;2.53;;;0.90;;
36379;SDS011;22411;53.016;18.632;2022-07-30T04:37:24;1.80;;;0.70;;
36379;SDS011;22411;53.016;18.632;2022-07-30T04:39:51;1.90;;;0.40;;
36379;SDS011;22411;53.016;18.632;2022-07-30T04:42:23;3.13;;;0.30;;
36379;SDS011;22411;53.016;18.632;2022-07-30T04:44:50;3.17;;;0.50;;
36379;SDS011;22411;53.016;18.632;2022-07-30T04:47:16;1.77;;;0.30;;
36379;SDS011;22411;53.016;18.632;2022-07-30T04:49:43;2.00;;;0.45;;
36379;SDS011;22411;53.016;18.632;2022-07-30T04:52:10;1.02;;;0.30;;
36379;SDS011;22411;53.016;18.632;2022-07-30T04:54:39;3.45;;;0.40;;
36379;SDS011;22411;53.016;18.632;2022-07-30T04:57:11;1.80;;;0.30;;
36379;SDS011;22411;53.016;18.632;2022-07-30T04:59:38;1.05;;;0.30;;
36379;SDS011;22411;53.016;18.632;2022-07-30T05:02:05;1.77;;;0.30;;
36379;SDS011;22411;53.016;18.632;2022-07-30T05:04:33;1.10;;;0.38;;
36379;SDS011;22411;53.016;18.632;2022-07-30T05:07:01;2.25;;;0.30;;
36379;SDS011;22411;53.016;18.632;2022-07-30T05:09:28;1.38;;;0.40;;
36379;SDS011;22411;53.016;18.632;2022-07-30T05:11:56;1.35;;;0.30;;
36379;SDS011;22411;53.016;18.632;2022-07-30T05:14:24;2.53;;;0.30;;
36379;SDS011;22411;53.016;18.632;2022-07-30T05:16:50;3.50;;;0.30;;
36379;SDS011;22411;53.016;18.632;2022-07-30T05:19:17;3.50;;;0.40;;
36379;SDS011;22411;53.016;18.632;2022-07-30T05:21:44;2.28;;;0.65;;
36379;SDS011;22411;53.016;18.632;2022-07-30T05:24:11;1.83;;;0.43;;
36379;SDS011;22411;53.016;18.632;2022-07-30T05:26:37;1.92;;;0.40;;
36379;SDS011;22411;53.016;18.632;2022-07-30T05:29:04;2.90;;;0.28;;
36379;SDS011;22411;53.016;18.632;2022-07-30T05:31:31;1.15;;;0.32;;
36379;SDS011;22411;53.016;18.632;2022-07-30T05:33:58;1.20;;;0.20;;
36379;SDS011;22411;53.016;18.632;2022-07-30T05:36:26;1.55;;;0.30;;
36379;SDS011;22411;53.016;18.632;2022-07-30T05:38:51;0.70;;;0.25;;
36379;SDS011;22411;53.016;18.632;2022-07-30T05:41:18;1.27;;;0.20;;
36379;SDS011;22411;53.016;18.632;2022-07-30T05:43:44;1.55;;;0.30;;
36379;SDS011;22411;53.016;18.632;2022-07-30T05:46:10;1.20;;;0.30;;
36379;SDS011;22411;53.016;18.632;2022-07-30T05:48:38;2.47;;;0.40;;
36379;SDS011;22411;53.016;18.632;2022-07-30T05:51:04;1.83;;;0.30;;
36379;SDS011;22411;53.016;18.632;2022-07-30T05:53:31;1.50;;;0.25;;
36379;SDS011;22411;53.016;18.632;2022-07-30T05:55:57;2.25;;;0.40;;
36379;SDS011;22411;53.016;18.632;2022-07-30T05:58:24;2.25;;;0.30;;
36379;SDS011;22411;53.016;18.632;2022-07-30T06:00:50;1.52;;;0.47;;
36379;SDS011;22411;53.016;18.632;2022-07-30T06:03:17;1.65;;;0.63;;
36379;SDS011;22411;53.016;18.632;2022-07-30T06:05:44;3.08;;;0.30;;
36379;SDS011;22411;53.016;18.632;2022-07-30T06:08:10;1.00;;;0.30;;
36379;SDS011;22411;53.016;18.632;2022-07-30T06:10:36;1.38;;;0.30;;
36379;SDS011;22411;53.016;18.632;2022-07-30T06:13:04;1.50;;;0.40;;
36379;SDS011;22411;53.016;18.632;2022-07-30T06:15:31;3.08;;;0.30;;
36379;SDS011;22411;53.016;18.632;2022-07-30T06:17:59;2.00;;;0.35;;
36379;SDS011;22411;53.016;18.632;2022-07-30T06:20:25;2.10;;;0.47;;
36379;SDS011;22411;53.016;18.632;2022-07-30T06:22:51;2.08;;;0.57;;
36379;SDS011;22411;53.016;18.632;2022-07-30T06:25:17;2.53;;;0.45;;
36379;SDS011;22411;53.016;18.632;2022-07-30T06:27:43;2.22;;;0.28;;
36379;SDS011;22411;53.016;18.632;2022-07-30T06:30:09;4.43;;;0.47;;
36379;SDS011;22411;53.016;18.632;2022-07-30T06:32:36;1.83;;;0.50;;
36379;SDS011;22411;53.016;18.632;2022-07-30T06:35:03;1.02;;;0.20;;
36379;SDS011;22411;53.016;18.632;2022-07-30T06:37:29;1.23;;;0.30;;
36379;SDS011;22411;53.016;18.632;2022-07-30T06:39:55;3.45;;;0.40;;
36379;SDS011;22411;53.016;18.632;2022-07-30T06:42:21;1.23;;;0.22;;
36379;SDS011;22411;53.016;18.632;2022-07-30T06:44:47;3.55;;;0.30;;
36379;SDS011;22411;53.016;18.632;2022-07-30T06:47:18;2.45;;;0.50;;
36379;SDS011;22411;53.016;18.632;2022-07-30T06:49:45;2.50;;;0.22;;
36379;SDS011;22411;53.016;18.632;2022-07-30T06:52:12;4.20;;;0.20;;
36379;SDS011;22411;53.016;18.632;2022-07-30T06:54:39;2.35;;;0.52;;
36379;SDS011;22411;53.016;18.632;2022-07-30T06:57:05;1.83;;;0.20;;
36379;SDS011;22411;53.016;18.632;2022-07-30T06:59:32;1.27;;;0.30;;
36379;SDS011;22411;53.016;18.632;2022-07-30T07:01:59;2.35;;;0.22;;
36379;SDS011;22411;53.016;18.632;2022-07-30T07:04:26;2.47;;;0.30;;
36379;SDS011;22411;53.016;18.632;2022-07-30T07:06:53;1.05;;;0.30;;
36379;SDS011;22411;53.016;18.632;2022-07-30T07:09:21;1.58;;;0.20;;
36379;SDS011;22411;53.016;18.632;2022-07-30T07:11:48;1.20;;;0.20;;
36379;SDS011;22411;53.016;18.632;2022-07-30T07:14:15;5.28;;;0.20;;
36379;SDS011;22411;53.016;18.632;2022-07-30T07:16:42;0.90;;;0.20;;
36379;SDS011;22411;53.016;18.632;2022-07-30T07:19:09;2.55;;;0.30;;
36379;SDS011;22411;53.016;18.632;2022-07-30T07:21:35;0.60;;;0.20;;
36379;SDS011;22411;53.016;18.632;2022-07-30T07:24:04;2.63;;;0.30;;
36379;SDS011;22411;53.016;18.632;2022-07-30T07:26:31;1.15;;;0.32;;
36379;SDS011;22411;53.016;18.632;2022-07-30T07:28:58;1.98;;;0.20;;
36379;SDS011;22411;53.016;18.632;2022-07-30T07:31:26;2.05;;;0.32;;
36379;SDS011;22411;53.016;18.632;2022-07-30T07:33:53;0.82;;;0.15;;
36379;SDS011;22411;53.016;18.632;2022-07-30T07:36:20;1.23;;;0.20;;
36379;SDS011;22411;53.016;18.632;2022-07-30T07:38:48;2.22;;;0.20;;
36379;SDS011;22411;53.016;18.632;2022-07-30T07:41:15;1.73;;;0.20;;
36379;SDS011;22411;53.016;18.632;2022-07-30T07:43:43;2.28;;;0.20;;
36379;SDS011;22411;53.016;18.632;2022-07-30T07:46:11;3.08;;;0.65;;
36379;SDS011;22411;53.016;18.632;2022-07-30T07:48:44;1.48;;;0.20;;
36379;SDS011;22411;53.016;18.632;2022-07-30T07:51:11;1.38;;;0.20;;
36379;SDS011;22411;53.016;18.632;2022-07-30T07:53:37;2.85;;;0.20;;
36379;SDS011;22411;53.016;18.632;2022-07-30T07:56:04;1.50;;;0.30;;
36379;SDS011;22411;53.016;18.632;2022-07-30T07:58:33;0.90;;;0.20;;
36379;SDS011;22411;53.016;18.632;2022-07-30T08:01:00;3.55;;;0.50;;
36379;SDS011;22411;53.016;18.632;2022-07-30T08:03:27;1.02;;;0.15;;
36379;SDS011;22411;53.016;18.632;2022-07-30T08:05:54;4.43;;;0.15;;
36379;SDS011;22411;53.016;18.632;2022-07-30T08:08:20;0.88;;;0.30;;
36379;SDS011;22411;53.016;18.632;2022-07-30T08:10:47;2.05;;;0.25;;
36379;SDS011;22411;53.016;18.632;2022-07-30T08:13:13;1.40;;;0.20;;
36379;SDS011;22411;53.016;18.632;2022-07-30T08:15:40;2.65;;;0.45;;
36379;SDS011;22411;53.016;18.632;2022-07-30T08:18:07;1.60;;;0.20;;
36379;SDS011;22411;53.016;18.632;2022-07-30T08:20:36;5.47;;;0.82;;
36379;SDS011;22411;53.016;18.632;2022-07-30T08:23:04;0.82;;;0.20;;
36379;SDS011;22411;53.016;18.632;2022-07-30T08:25:32;2.08;;;0.25;;
36379;SDS011;22411;53.016;18.632;2022-07-30T08:28:00;0.88;;;0.13;;
36379;SDS011;22411;53.016;18.632;2022-07-30T08:30:28;1.98;;;0.30;;
36379;SDS011;22411;53.016;18.632;2022-07-30T08:32:56;2.50;;;0.30;;
36379;SDS011;22411;53.016;18.632;2022-07-30T08:35:24;0.50;;;0.10;;
36379;SDS011;22411;53.016;18.632;2022-07-30T08:37:53;1.65;;;0.10;;
36379;SDS011;22411;53.016;18.632;2022-07-30T08:40:19;0.52;;;0.10;;
36379;SDS011;22411;53.016;18.632;2022-07-30T08:42:48;1.15;;;0.10;;
36379;SDS011;22411;53.016;18.632;2022-07-30T08:45:16;2.60;;;0.32;;
36379;SDS011;22411;53.016;18.632;2022-07-30T08:47:45;0.90;;;0.35;;
36379;SDS011;22411;53.016;18.632;2022-07-30T08:50:14;4.20;;;0.52;;
36379;SDS011;22411;53.016;18.632;2022-07-30T08:52:41;1.08;;;0.10;;
36379;SDS011;22411;53.016;18.632;2022-07-30T08:55:08;0.90;;;0.20;;
36379;SDS011;22411;53.016;18.632;2022-07-30T08:57:34;4.07;;;0.40;;
36379;SDS011;22411;53.016;18.632;2022-07-30T09:00:03;7.18;;;4.03;;
36379;SDS011;22411;53.016;18.632;2022-07-30T09:02:32;7.30;;;6.60;;
36379;SDS011;22411;53.016;18.632;2022-07-30T09:04:59;4.22;;;2.95;;
36379;SDS011;22411;53.016;18.632;2022-07-30T09:07:25;6.28;;;4.88;;
36379;SDS011;22411;53.016;18.632;2022-07-30T09:09:51;3.03;;;1.17;;
36379;SDS011;22411;53.016;18.632;2022-07-30T09:12:37;2.92;;;2.63;;
36379;SDS011;22411;53.016;18.632;2022-07-30T09:15:16;1.33;;;0.68;;
36379;SDS011;22411;53.016;18.632;2022-07-30T09:20:22;2.45;;;0.50;;
36379;SDS011;22411;53.016;18.632;2022-07-30T09:22:51;1.98;;;0.30;;
36379;SDS011;22411;53.016;18.632;2022-07-30T09:25:31;1.20;;;0.57;;
36379;SDS011;22411;53.016;18.632;2022-07-30T09:28:09;2.30;;;0.50;;
36379;SDS011;22411;53.016;18.632;2022-07-30T09:30:46;2.25;;;0.30;;
36379;SDS011;22411;53.016;18.632;2022-07-30T09:33:14;2.22;;;0.10;;
36379;SDS011;22411;53.016;18.632;2022-07-30T09:38:21;0.88;;;0.25;;
36379;SDS011;22411;53.016;18.632;2022-07-30T09:40:57;1.58;;;0.20;;
36379;SDS011;22411;53.016;18.632;2022-07-30T09:43:23;2.67;;;0.30;;
36379;SDS011;22411;53.016;18.632;2022-07-30T09:45:51;2.78;;;0.20;;
36379;SDS011;22411;53.016;18.632;2022-07-30T09:48:26;2.90;;;0.35;;
36379;SDS011;22411;53.016;18.632;2022-07-30T09:50:53;1.30;;;0.30;;
36379;SDS011;22411;53.016;18.632;2022-07-30T09:53:20;0.60;;;0.20;;
36379;SDS011;22411;53.016;18.632;2022-07-30T09:55:48;0.95;;;0.20;;
36379;SDS011;22411;53.016;18.632;2022-07-30T09:58:14;1.45;;;0.30;;
36379;SDS011;22411;53.016;18.632;2022-07-30T10:00:40;1.20;;;0.20;;
36379;SDS011;22411;53.016;18.632;2022-07-30T10:03:14;1.65;;;0.30;;
36379;SDS011;22411;53.016;18.632;2022-07-30T10:08:21;2.15;;;0.20;;
36379;SDS011;22411;53.016;18.632;2022-07-30T10:11:08;3.28;;;0.38;;
36379;SDS011;22411;53.016;18.632;2022-07-30T10:13:37;1.88;;;0.30;;
36379;SDS011;22411;53.016;18.632;2022-07-30T10:16:04;1.05;;;0.32;;
36379;SDS011;22411;53.016;18.632;2022-07-30T10:18:31;1.40;;;0.20;;
36379;SDS011;22411;53.016;18.632;2022-07-30T10:20:57;4.05;;;0.50;;
36379;SDS011;22411;53.016;18.632;2022-07-30T10:23:26;1.35;;;0.40;;
36379;SDS011;22411;53.016;18.632;2022-07-30T10:25:58;4.50;;;0.32;;
36379;SDS011;22411;53.016;18.632;2022-07-30T10:28:26;2.35;;;0.20;;
36379;SDS011;22411;53.016;18.632;2022-07-30T10:30:54;0.82;;;0.20;;
36379;SDS011;22411;53.016;18.632;2022-07-30T10:33:23;3.92;;;0.30;;
36379;SDS011;22411;53.016;18.632;2022-07-30T10:35:50;2.95;;;0.28;;
36379;SDS011;22411;53.016;18.632;2022-07-30T10:38:17;2.38;;;0.20;;
36379;SDS011;22411;53.016;18.632;2022-07-30T10:41:04;2.67;;;0.30;;
36379;SDS011;22411;53.016;18.632;2022-07-30T10:49:11;1.42;;;0.30;;
36379;SDS011;22411;53.016;18.632;2022-07-30T10:52:12;1.98;;;0.40;;
36379;SDS011;22411;53.016;18.632;2022-07-30T10:57:06;2.30;;;0.30;;
36379;SDS011;22411;53.016;18.632;2022-07-30T11:02:22;3.88;;;0.20;;
36379;SDS011;22411;53.016;18.632;2022-07-30T11:07:47;4.80;;;0.85;;
36379;SDS011;22411;53.016;18.632;2022-07-30T11:10:33;7.13;;;0.50;;
36379;SDS011;22411;53.016;18.632;2022-07-30T11:13:02;5.15;;;1.33;;
36379;SDS011;22411;53.016;18.632;2022-07-30T11:18:22;7.30;;;0.50;;
36379;SDS011;22411;53.016;18.632;2022-07-30T11:23:41;7.10;;;0.55;;
36379;SDS011;22411;53.016;18.632;2022-07-30T11:26:10;3.83;;;0.32;;
36379;SDS011;22411;53.016;18.632;2022-07-30T11:28:57;4.88;;;0.60;;
36379;SDS011;22411;53.016;18.632;2022-07-30T11:31:25;1.83;;;1.15;;
36379;SDS011;22411;53.016;18.632;2022-07-30T11:33:52;4.25;;;0.70;;
36379;SDS011;22411;53.016;18.632;2022-07-30T11:37:02;0.82;;;0.20;;
36379;SDS011;22411;53.016;18.632;2022-07-30T11:42:23;0.75;;;0.20;;
36379;SDS011;22411;53.016;18.632;2022-07-30T11:45:16;3.25;;;0.57;;
36379;SDS011;22411;53.016;18.632;2022-07-30T11:47:45;1.88;;;0.30;;
36379;SDS011;22411;53.016;18.632;2022-07-30T11:50:17;1.58;;;0.40;;
36379;SDS011;22411;53.016;18.632;2022-07-30T11:52:56;5.43;;;0.70;;
36379;SDS011;22411;53.016;18.632;2022-07-30T11:55:30;3.47;;;0.47;;
36379;SDS011;22411;53.016;18.632;2022-07-30T11:58:02;9.20;;;1.88;;
36379;SDS011;22411;53.016;18.632;2022-07-30T12:00:41;4.72;;;0.47;;
36379;SDS011;22411;53.016;18.632;2022-07-30T12:03:13;7.63;;;0.85;;
36379;SDS011;22411;53.016;18.632;2022-07-30T12:05:41;6.63;;;0.75;;
36379;SDS011;22411;53.016;18.632;2022-07-30T12:08:08;2.90;;;0.55;;
36379;SDS011;22411;53.016;18.632;2022-07-30T12:10:36;1.75;;;0.40;;
36379;SDS011;22411;53.016;18.632;2022-07-30T12:13:07;6.47;;;0.50;;
36379;SDS011;22411;53.016;18.632;2022-07-30T12:18:01;3.90;;;0.30;;
36379;SDS011;22411;53.016;18.632;2022-07-30T12:20:28;6.50;;;0.77;;
36379;SDS011;22411;53.016;18.632;2022-07-30T12:22:55;4.10;;;2.35;;
36379;SDS011;22411;53.016;18.632;2022-07-30T12:25:22;8.95;;;4.78;;
36379;SDS011;22411;53.016;18.632;2022-07-30T12:27:48;6.15;;;4.28;;
36379;SDS011;22411;53.016;18.632;2022-07-30T12:30:15;9.18;;;4.20;;
36379;SDS011;22411;53.016;18.632;2022-07-30T12:32:43;9.07;;;4.78;;
36379;SDS011;22411;53.016;18.632;2022-07-30T12:35:10;6.40;;;4.85;;
36379;SDS011;22411;53.016;18.632;2022-07-30T12:37:37;8.52;;;5.72;;
36379;SDS011;22411;53.016;18.632;2022-07-30T12:40:08;10.93;;;5.47;;
36379;SDS011;22411;53.016;18.632;2022-07-30T12:42:58;5.68;;;3.97;;
36379;SDS011;22411;53.016;18.632;2022-07-30T12:45:32;4.38;;;1.48;;
36379;SDS011;22411;53.016;18.632;2022-07-30T12:47:59;4.35;;;0.63;;
36379;SDS011;22411;53.016;18.632;2022-07-30T12:50:25;3.05;;;0.40;;
36379;SDS011;22411;53.016;18.632;2022-07-30T12:52:52;1.50;;;0.20;;
36379;SDS011;22411;53.016;18.632;2022-07-30T12:55:30;0.77;;;0.30;;
36379;SDS011;22411;53.016;18.632;2022-07-30T12:58:06;4.63;;;0.28;;
36379;SDS011;22411;53.016;18.632;2022-07-30T13:00:44;1.83;;;0.20;;
36379;SDS011;22411;53.016;18.632;2022-07-30T13:03:22;2.58;;;0.30;;
36379;SDS011;22411;53.016;18.632;2022-07-30T13:05:51;0.57;;;0.10;;
36379;SDS011;22411;53.016;18.632;2022-07-30T13:11:05;1.25;;;0.30;;
36379;SDS011;22411;53.016;18.632;2022-07-30T13:13:31;1.17;;;0.30;;
36379;SDS011;22411;53.016;18.632;2022-07-30T13:16:03;3.97;;;1.98;;
36379;SDS011;22411;53.016;18.632;2022-07-30T13:18:30;4.95;;;2.90;;
36379;SDS011;22411;53.016;18.632;2022-07-30T13:20:58;6.72;;;4.32;;
36379;SDS011;22411;53.016;18.632;2022-07-30T13:23:24;13.65;;;6.25;;
36379;SDS011;22411;53.016;18.632;2022-07-30T13:25:52;5.88;;;4.70;;
36379;SDS011;22411;53.016;18.632;2022-07-30T13:28:19;5.68;;;3.72;;
36379;SDS011;22411;53.016;18.632;2022-07-30T13:30:45;5.32;;;3.17;;
36379;SDS011;22411;53.016;18.632;2022-07-30T13:33:13;4.15;;;2.45;;
36379;SDS011;22411;53.016;18.632;2022-07-30T13:35:39;4.75;;;2.92;;
36379;SDS011;22411;53.016;18.632;2022-07-30T13:38:05;5.07;;;3.03;;
36379;SDS011;22411;53.016;18.632;2022-07-30T13:40:32;6.35;;;4.82;;
36379;SDS011;22411;53.016;18.632;2022-07-30T13:42:59;6.22;;;4.43;;
36379;SDS011;22411;53.016;18.632;2022-07-30T13:45:26;4.60;;;3.42;;
36379;SDS011;22411;53.016;18.632;2022-07-30T13:47:52;6.65;;;3.78;;
36379;SDS011;22411;53.016;18.632;2022-07-30T13:50:18;7.72;;;3.83;;
36379;SDS011;22411;53.016;18.632;2022-07-30T13:52:44;4.32;;;2.97;;
36379;SDS011;22411;53.016;18.632;2022-07-30T13:55:10;4.95;;;2.33;;
36379;SDS011;22411;53.016;18.632;2022-07-30T13:57:36;7.15;;;6.25;;
36379;SDS011;22411;53.016;18.632;2022-07-30T14:00:03;2.83;;;2.13;;
36379;SDS011;22411;53.016;18.632;2022-07-30T14:02:31;3.63;;;0.93;;
36379;SDS011;22411;53.016;18.632;2022-07-30T14:04:59;4.30;;;0.52;;
36379;SDS011;22411;53.016;18.632;2022-07-30T14:07:33;4.60;;;0.70;;
36379;SDS011;22411;53.016;18.632;2022-07-30T14:10:01;3.15;;;0.85;;
36379;SDS011;22411;53.016;18.632;2022-07-30T14:12:28;3.25;;;0.88;;
36379;SDS011;22411;53.016;18.632;2022-07-30T14:14:53;5.57;;;3.47;;
36379;SDS011;22411;53.016;18.632;2022-07-30T14:17:20;3.83;;;1.70;;
36379;SDS011;22411;53.016;18.632;2022-07-30T14:19:46;4.00;;;1.52;;
36379;SDS011;22411;53.016;18.632;2022-07-30T14:22:12;2.20;;;1.02;;
36379;SDS011;22411;53.016;18.632;2022-07-30T14:24:38;5.63;;;4.05;;
36379;SDS011;22411;53.016;18.632;2022-07-30T14:27:04;3.85;;;2.05;;
36379;SDS011;22411;53.016;18.632;2022-07-30T14:29:30;2.40;;;0.77;;
36379;SDS011;22411;53.016;18.632;2022-07-30T14:31:56;4.00;;;1.15;;
36379;SDS011;22411;53.016;18.632;2022-07-30T14:34:22;2.08;;;0.47;;
36379;SDS011;22411;53.016;18.632;2022-07-30T14:36:50;2.22;;;0.60;;
36379;SDS011;22411;53.016;18.632;2022-07-30T14:39:16;2.67;;;1.10;;
36379;SDS011;22411;53.016;18.632;2022-07-30T14:41:42;3.47;;;1.67;;
36379;SDS011;22411;53.016;18.632;2022-07-30T14:44:09;5.65;;;2.80;;
36379;SDS011;22411;53.016;18.632;2022-07-30T14:46:37;6.97;;;4.28;;
36379;SDS011;22411;53.016;18.632;2022-07-30T14:49:04;4.85;;;4.00;;
36379;SDS011;22411;53.016;18.632;2022-07-30T14:51:30;10.15;;;5.13;;
36379;SDS011;22411;53.016;18.632;2022-07-30T14:53:56;8.57;;;5.75;;
36379;SDS011;22411;53.016;18.632;2022-07-30T14:56:22;8.18;;;6.03;;
36379;SDS011;22411;53.016;18.632;2022-07-30T14:58:49;6.97;;;3.90;;
36379;SDS011;22411;53.016;18.632;2022-07-30T15:01:16;4.15;;;1.77;;
36379;SDS011;22411;53.016;18.632;2022-07-30T15:03:45;2.58;;;0.60;;
36379;SDS011;22411;53.016;18.632;2022-07-30T15:06:12;2.47;;;0.50;;
36379;SDS011;22411;53.016;18.632;2022-07-30T15:08:40;2.30;;;0.57;;
36379;SDS011;22411;53.016;18.632;2022-07-30T15:11:08;2.33;;;0.90;;
36379;SDS011;22411;53.016;18.632;2022-07-30T15:13:33;2.30;;;0.65;;
36379;SDS011;22411;53.016;18.632;2022-07-30T15:16:00;3.60;;;0.80;;
36379;SDS011;22411;53.016;18.632;2022-07-30T15:18:26;2.25;;;0.47;;
36379;SDS011;22411;53.016;18.632;2022-07-30T15:20:52;1.88;;;0.60;;